Time;durP1;ratioP1;P1;durP2;ratioP2;P2;SDS_P1;SDS_P2;PMS_P1;PMS_P2;Temp;Humidity;BMP_temperature;BMP_pressure;BME280_temperature;BME280_humidity;BME280_pressure;Samples;Min_cycle;Max_cycle;Signal;HPM_P1;HPM_P2
2022/01/25 00:10:15;;;;;;;3.92;2.70;;;;;;;-145.06;0.00;60892.56;4850005;28;20037;-88
2022/01/25 00:25:06;;;;;;;5.30;3.63;;;;;;;-145.06;0.00;60892.56;4855446;28;20037;-86
2022/01/25 00:30:32;;;;;;;4.03;3.13;;;;;;;-145.06;0.00;60892.56;4855744;28;20029;-88
2022/01/25 00:33:10;;;;;;;4.47;3.13;;;;;;;-145.06;0.00;60892.56;4854111;28;20116;-87
2022/01/25 00:35:49;;;;;;;4.05;3.15;;;;;;;-145.06;0.00;60892.56;4861293;28;20041;-88
2022/01/25 00:38:28;;;;;;;3.47;2.90;;;;;;;-145.06;0.00;60892.56;4855869;28;20724;-88
2022/01/25 00:41:07;;;;;;;4.97;3.20;;;;;;;-145.06;0.00;60892.56;4855888;28;20488;-88
2022/01/25 00:43:46;;;;;;;4.23;3.17;;;;;;;-145.06;0.00;60892.56;4851333;28;20772;-88
2022/01/25 00:46:26;;;;;;;3.90;3.10;;;;;;;-145.06;0.00;60892.56;4852778;28;20264;-88
2022/01/25 00:49:05;;;;;;;4.78;3.63;;;;;;;-145.06;0.00;60892.56;4853981;28;20033;-88
2022/01/25 00:54:31;;;;;;;4.60;3.17;;;;;;;-145.06;0.00;60892.56;4853646;28;20052;-88
2022/01/25 00:57:10;;;;;;;3.80;3.05;;;;;;;-145.06;0.00;60892.56;4852192;28;20041;-87
2022/01/25 00:59:49;;;;;;;3.63;3.03;;;;;;;-145.06;0.00;60892.56;4849898;28;20041;-87
2022/01/25 01:02:28;;;;;;;4.35;3.10;;;;;;;2.89;0.00;60892.56;4856178;28;20051;-88
2022/01/25 01:05:08;;;;;;;4.70;3.25;;;;;;;2.57;0.00;60892.56;4857807;28;20095;-88
2022/01/25 01:07:47;;;;;;;;;;;;;;;187.52;0.00;60892.56;4855246;28;20112;-87
2022/01/25 01:10:27;;;;;;;3.55;2.85;;;;;;;2.60;0.00;60892.56;4854655;28;20252;-87
2022/01/25 01:16:02;;;;;;;4.25;3.15;;;;;;;2.66;0.00;60892.56;4857171;28;20033;-88
2022/01/25 01:36:46;;;;;;;4.07;3.25;;;;;;;-145.06;0.00;60892.56;4861702;28;20388;-88
2022/01/25 01:47:49;;;;;;;4.40;3.30;;;;;;;-145.06;0.00;60892.56;4857568;28;20029;-88
2022/01/25 01:50:32;;;;;;;5.28;3.63;;;;;;;10.68;0.00;60892.56;4853915;28;20048;-88
2022/01/25 01:53:10;;;;;;;6.63;3.72;;;;;;;-145.06;0.00;60892.56;4854032;28;20033;-88
2022/01/25 01:55:49;;;;;;;5.55;4.00;;;;;;;-145.06;0.00;60892.56;4853492;28;20048;-89
2022/01/25 01:58:28;;;;;;;5.53;3.87;;;;;;;2.89;0.00;60892.56;4840214;28;20037;-88
2022/01/25 02:01:12;;;;;;;6.30;4.23;;;;;;;5.49;0.00;60892.56;4853658;28;20303;-86
2022/01/25 02:03:53;;;;;;;5.45;4.00;;;;;;;5.49;0.00;60892.56;4858421;28;20483;-88
2022/01/25 02:06:32;;;;;;;6.75;4.05;;;;;;;-145.06;0.00;60892.56;4867327;28;20037;-88
2022/01/25 02:09:12;;;;;;;6.47;4.00;;;;;;;-145.06;0.00;60892.56;4855765;28;20060;-88
2022/01/25 02:11:51;;;;;;;6.63;3.90;;;;;;;-145.06;0.00;60892.56;4867787;28;20029;-88
2022/01/25 02:14:35;;;;;;;6.55;3.75;;;;;;;187.52;0.00;60892.56;4857013;28;20026;-89
2022/01/25 02:17:39;;;;;;;6.03;3.90;;;;;;;187.52;0.00;60892.56;4865557;28;20037;-88
2022/01/25 02:23:22;;;;;;;5.80;3.53;;;;;;;-145.06;0.00;60892.56;4845335;28;20030;-88
2022/01/25 02:26:03;;;;;;;5.55;3.80;;;;;;;187.52;0.00;60892.56;4850104;28;20120;-88
2022/01/25 02:28:45;;;;;;;5.80;3.67;;;;;;;5.49;0.00;60892.56;4854102;28;20037;-87
2022/01/25 02:31:23;;;;;;;6.45;3.90;;;;;;;-145.06;0.00;60892.56;4848342;28;20041;-88
2022/01/25 02:34:02;;;;;;;7.75;4.43;;;;;;;-145.06;0.00;60892.56;4864135;28;20068;-87
2022/01/25 02:36:41;;;;;;;8.40;4.57;;;;;;;2.72;0.00;60892.56;4849011;28;20045;-88
2022/01/25 02:39:20;;;;;;;7.20;4.57;;;;;;;10.68;0.00;60892.56;4857567;28;20045;-87
2022/01/25 02:42:00;;;;;;;8.10;4.78;;;;;;;2.68;0.00;79124.75;4856510;28;20037;-89
2022/01/25 02:44:41;;;;;;;7.07;4.30;;;;;;;-145.06;0.00;60892.56;4857008;28;20388;-88
2022/01/25 02:50:18;;;;;;;7.85;3.63;;;;;;;-145.06;0.00;60892.56;4859972;28;20384;-88
2022/01/25 02:52:57;;;;;;;6.47;4.30;;;;;;;-145.06;0.00;60892.56;4867946;28;20038;-87
2022/01/25 02:55:39;;;;;;;6.10;4.03;;;;;;;-145.06;0.00;60892.56;4874286;28;20033;-88
2022/01/25 02:58:19;;;;;;;7.25;4.20;;;;;;;-145.06;0.00;60892.56;4881514;28;20107;-88
2022/01/25 03:00:57;;;;;;;5.10;3.67;;;;;;;-145.06;0.00;60892.56;4864574;28;20373;-88
2022/01/25 03:03:37;;;;;;;5.97;3.70;;;;;;;-145.06;0.00;60892.56;4861644;28;20029;-88
2022/01/25 03:06:18;;;;;;;5.03;3.28;;;;;;;187.52;0.00;60892.56;4862301;28;20041;-87
2022/01/25 03:08:58;;;;;;;4.72;2.85;;;;;;;-145.06;0.00;60892.56;4857403;28;20033;-88
2022/01/25 03:11:37;;;;;;;5.35;2.90;;;;;;;-145.06;0.00;60892.56;4861630;28;20449;-87
2022/01/25 03:14:19;;;;;;;5.87;3.80;;;;;;;2.58;0.00;60892.56;4861293;28;20045;-88
2022/01/25 03:24:58;;;;;;;6.63;3.88;;;;;;;-145.06;0.00;60892.56;4857471;28;20268;-88
2022/01/25 03:27:37;;;;;;;5.07;3.53;;;;;;;-145.06;0.00;60892.56;4857531;28;20041;-89
2022/01/25 03:30:16;;;;;;;9.18;4.55;;;;;;;-145.06;0.00;60892.56;4870571;28;20643;-88
2022/01/25 03:32:55;;;;;;;7.35;4.72;;;;;;;-145.06;0.00;60892.56;4870701;28;20041;-88
2022/01/25 03:35:34;;;;;;;9.13;4.80;;;;;;;-145.06;0.00;60892.56;4864416;28;20080;-88
2022/01/25 03:38:13;;;;;;;9.82;5.05;;;;;;;-145.06;0.00;60892.56;4856954;28;20121;-88
2022/01/25 03:40:52;;;;;;;8.20;4.80;;;;;;;-145.06;0.00;60892.56;4858759;28;20053;-87
2022/01/25 03:43:31;;;;;;;8.47;4.93;;;;;;;-145.06;0.00;60892.56;4860990;28;20360;-88
2022/01/25 03:46:17;;;;;;;7.45;4.63;;;;;;;-145.06;0.00;60892.56;4880004;28;20037;-87
2022/01/25 03:51:54;;;;;;;8.45;4.60;;;;;;;-145.06;0.00;60892.56;4856335;28;20038;-89
2022/01/25 03:54:34;;;;;;;9.17;4.90;;;;;;;-145.06;0.00;60892.56;4863575;28;20033;-88
2022/01/25 03:57:13;;;;;;;9.18;4.75;;;;;;;-145.06;0.00;60892.56;4858933;28;20115;-88
2022/01/25 03:59:53;;;;;;;6.53;4.07;;;;;;;-145.06;0.00;60892.56;4862893;28;20025;-88
2022/01/25 04:02:33;;;;;;;8.13;4.22;;;;;;;-145.06;0.00;60892.56;4855335;28;20599;-89
2022/01/25 04:05:20;;;;;;;7.20;4.13;;;;;;;-145.06;0.00;60892.56;4865151;28;20029;-88
2022/01/25 04:07:59;;;;;;;6.57;4.13;;;;;;;-145.06;0.00;60892.56;4857114;28;20436;-88
2022/01/25 04:10:40;;;;;;;7.80;4.35;;;;;;;-145.06;0.00;60892.56;4856245;28;20025;-88
2022/01/25 04:13:19;;;;;;;7.90;3.97;;;;;;;-145.06;0.00;60892.56;4856350;28;20369;-88
2022/01/25 04:16:05;;;;;;;8.15;4.68;;;;;;;-145.06;0.00;60892.56;4857183;28;20065;-88
2022/01/25 04:19:05;;;;;;;7.53;4.43;;;;;;;-145.06;0.00;60892.56;4856234;28;20033;-88
2022/01/25 04:24:54;;;;;;;8.50;4.80;;;;;;;-145.06;0.00;60892.56;4855787;28;20034;-87
2022/01/25 04:25:06;;;;;;;7.72;4.32;;;;;;;-145.06;0.00;60892.56;4851545;28;20380;-87
2022/01/25 04:27:45;;;;;;;5.80;3.47;;;;;;;-145.06;0.00;60892.56;4854773;28;20037;-88
2022/01/25 04:30:24;;;;;;;7.30;4.10;;;;;;;-145.06;0.00;60892.56;4853384;28;20388;-87
2022/01/25 04:33:15;;;;;;;7.25;4.47;;;;;;;-145.06;0.00;60892.56;4855361;28;20460;-88
2022/01/25 04:36:13;;;;;;;6.03;3.45;;;;;;;-145.06;0.00;60892.56;4872830;28;20377;-88
2022/01/25 04:50:55;;;;;;;7.38;3.38;;;;;;;-145.06;0.00;60892.56;4861548;28;20502;-88
2022/01/25 04:56:28;;;;;;;5.97;3.58;;;;;;;187.52;0.00;60892.56;4854679;28;20021;-88
2022/01/25 04:59:16;;;;;;;6.65;3.30;;;;;;;-145.06;0.00;60892.56;4862590;28;20507;-89
2022/01/25 05:02:02;;;;;;;6.05;3.40;;;;;;;-145.06;0.00;60892.56;4872661;28;20495;-88
2022/01/25 05:04:57;;;;;;;6.88;3.40;;;;;;;-145.06;0.00;60892.56;4854611;28;20033;-88
2022/01/25 05:10:45;;;;;;;5.65;2.97;;;;;;;-145.06;0.00;60892.56;4855015;28;20037;-88
2022/01/25 05:13:41;;;;;;;6.13;3.28;;;;;;;-145.06;0.00;60892.56;4868305;28;20029;-88
2022/01/25 05:22:05;;;;;;;6.40;3.72;;;;;;;-145.06;0.00;60892.56;4862804;28;20029;-88
2022/01/25 05:24:45;;;;;;;5.78;3.40;;;;;;;-145.06;0.00;60892.56;4853866;28;20037;-89
2022/01/25 05:27:30;;;;;;;7.10;3.85;;;;;;;-145.06;0.00;60892.56;4869276;28;20032;-88
2022/01/25 05:30:09;;;;;;;6.45;3.80;;;;;;;-145.06;0.00;60892.56;4868592;28;20033;-89
2022/01/25 05:32:48;;;;;;;5.75;3.25;;;;;;;-145.06;0.00;60892.56;4866470;28;20108;-89
2022/01/25 05:35:27;;;;;;;6.20;2.97;;;;;;;5.49;0.00;60892.56;4863215;28;20033;-89
2022/01/25 05:38:06;;;;;;;5.85;3.17;;;;;;;-145.06;0.00;60892.56;4857226;28;20041;-88
2022/01/25 05:40:49;;;;;;;6.07;3.33;;;;;;;-145.06;0.00;60892.56;4864131;28;20033;-88
2022/01/25 05:46:17;;;;;;;6.60;3.65;;;;;;;-145.06;0.00;60892.56;4853634;28;20640;-87
2022/01/25 05:48:56;;;;;;;5.97;3.22;;;;;;;-145.06;0.00;60892.56;4852618;28;20038;-88
2022/01/25 05:51:35;;;;;;;5.57;3.13;;;;;;;2.56;0.00;60892.56;4845852;28;20037;-89
2022/01/25 05:54:14;;;;;;;5.05;2.65;;;;;;;-145.06;0.00;60892.56;4858696;28;20029;-87
2022/01/25 05:56:52;;;;;;;5.70;3.50;;;;;;;-145.06;0.00;60892.56;4851902;28;20045;-88
2022/01/25 05:59:32;;;;;;;5.53;3.17;;;;;;;-145.06;0.00;60892.56;4854138;28;20029;-88
2022/01/25 06:02:16;;;;;;;5.13;3.30;;;;;;;-145.06;0.00;60892.56;4844962;28;20041;-88
2022/01/25 06:04:55;;;;;;;5.40;2.90;;;;;;;-145.06;0.00;60892.56;4853656;28;20056;-88
2022/01/25 06:07:34;;;;;;;4.93;2.63;;;;;;;-145.06;0.00;60892.56;4854198;28;20025;-88
2022/01/25 06:10:14;;;;;;;5.70;3.30;;;;;;;-145.06;0.00;60892.56;4841519;28;20280;-88
2022/01/25 06:12:52;;;;;;;5.85;3.13;;;;;;;-145.06;0.00;60892.56;4851542;28;20037;-88
2022/01/25 06:15:32;;;;;;;5.82;3.17;;;;;;;-145.06;0.00;60892.56;4863196;28;20731;-90
2022/01/25 06:18:11;;;;;;;5.55;2.80;;;;;;;-145.06;0.00;60892.56;4868803;28;20037;-87
2022/01/25 06:20:50;;;;;;;5.43;3.03;;;;;;;-145.06;0.00;60892.56;4882599;28;20271;-87
2022/01/25 06:23:29;;;;;;;6.18;3.65;;;;;;;-145.06;0.00;60892.56;4854424;28;20038;-89
2022/01/25 06:26:08;;;;;;;5.78;3.35;;;;;;;-145.06;0.00;60892.56;4857513;28;20041;-88
2022/01/25 06:28:47;;;;;;;5.18;3.05;;;;;;;-145.06;0.00;60892.56;4861553;28;20029;-88
2022/01/25 06:31:27;;;;;;;5.50;2.90;;;;;;;-145.06;0.00;60892.56;4856906;28;20380;-88
2022/01/25 06:34:06;;;;;;;4.95;2.88;;;;;;;-145.06;0.00;60892.56;4859835;28;20279;-87
2022/01/25 06:36:47;;;;;;;5.68;3.17;;;;;;;-145.06;0.00;60892.56;4852645;28;20060;-87
2022/01/25 06:39:25;;;;;;;6.10;3.38;;;;;;;-145.06;0.00;60892.56;4869852;28;20033;-88
2022/01/25 06:42:05;;;;;;;6.00;3.30;;;;;;;-145.06;0.00;60892.56;4855473;28;20029;-89
2022/01/25 06:44:44;;;;;;;;;;;;;;;-145.06;0.00;60892.56;4847817;28;20295;-88
2022/01/25 06:47:23;;;;;;;6.38;3.67;;;;;;;-145.06;0.00;60892.56;4862961;28;19921;-89
2022/01/25 06:50:03;;;;;;;7.25;4.00;;;;;;;-145.06;0.00;60892.56;4855054;28;20037;-89
2022/01/25 06:52:43;;;;;;;6.53;3.53;;;;;;;-145.06;0.00;60892.56;4855603;28;20025;-89
2022/01/25 06:55:23;;;;;;;6.90;3.10;;;;;;;-145.06;0.00;60892.56;4868856;28;20495;-88
2022/01/25 06:58:02;;;;;;;;;;;;;;;-145.06;0.00;60892.56;4866218;28;20057;-89
2022/01/25 07:00:42;;;;;;;4.83;3.03;;;;;;;-145.06;0.00;60892.56;4857844;28;20244;-88
2022/01/25 07:03:21;;;;;;;4.45;2.50;;;;;;;-145.06;0.00;60892.56;4857528;28;20347;-90
2022/01/25 07:06:00;;;;;;;5.45;3.05;;;;;;;-145.06;0.00;60892.56;4853698;28;20154;-89
2022/01/25 07:08:41;;;;;;;5.22;3.15;;;;;;;-145.06;0.00;60892.56;4855366;28;20615;-89
2022/01/25 07:11:20;;;;;;;4.32;2.47;;;;;;;-145.06;0.00;60892.56;4849705;28;20033;-89
2022/01/25 07:14:00;;;;;;;5.50;3.20;;;;;;;-145.06;0.00;60892.56;4846261;28;20033;-89
2022/01/25 07:16:39;;;;;;;4.43;2.67;;;;;;;-145.06;0.00;60892.56;4853715;28;20615;-87
2022/01/25 07:19:18;;;;;;;4.25;2.63;;;;;;;-145.06;0.00;60892.56;4850268;28;20038;-88
2022/01/25 07:21:56;;;;;;;6.18;3.38;;;;;;;-145.06;0.00;60892.56;4850278;28;20041;-90
2022/01/25 07:24:35;;;;;;;5.00;3.00;;;;;;;-145.06;0.00;60892.56;4859611;28;20034;-88
2022/01/25 07:27:14;;;;;;;5.87;3.33;;;;;;;-145.06;0.00;60892.56;4849519;28;20629;-89
2022/01/25 07:29:53;;;;;;;6.93;3.33;;;;;;;-145.06;0.00;60892.56;4847547;28;20531;-88
2022/01/25 07:32:33;;;;;;;5.07;2.90;;;;;;;-145.06;0.00;60892.56;4854278;28;20456;-89
2022/01/25 07:35:12;;;;;;;7.32;3.13;;;;;;;-145.06;0.00;60892.56;4851070;28;20041;-89
2022/01/25 07:37:51;;;;;;;7.53;3.33;;;;;;;-145.06;0.00;60892.56;4849952;28;20788;-88
2022/01/25 07:40:31;;;;;;;6.13;3.10;;;;;;;-145.06;0.00;60892.56;4849625;28;20695;-88
2022/01/25 07:43:10;;;;;;;5.53;2.90;;;;;;;-145.06;0.00;60892.56;4846747;28;20041;-88
2022/01/25 07:45:53;;;;;;;5.40;2.53;;;;;;;-145.06;0.00;60892.56;4847010;28;20037;-88
2022/01/25 07:48:32;;;;;;;5.18;2.72;;;;;;;-145.06;0.00;60892.56;4867623;28;20045;-88
2022/01/25 07:51:11;;;;;;;8.30;3.78;;;;;;;-145.06;0.00;60892.56;4851697;28;20041;-88
2022/01/25 07:53:50;;;;;;;6.85;3.00;;;;;;;-145.06;0.00;60892.56;4861794;28;20029;-88
2022/01/25 07:56:29;;;;;;;4.88;2.75;;;;;;;-145.06;0.00;60892.56;4863476;28;20663;-89
2022/01/25 07:59:08;;;;;;;5.32;2.65;;;;;;;-145.06;0.00;60892.56;4847448;28;20096;-88
2022/01/25 08:01:49;;;;;;;7.57;2.95;;;;;;;-145.06;0.00;60892.56;4864660;28;20590;-88
2022/01/25 08:04:28;;;;;;;5.15;2.42;;;;;;;-145.06;0.00;60892.56;4845211;28;20113;-89
2022/01/25 08:07:07;;;;;;;5.70;2.88;;;;;;;-145.06;0.00;60892.56;4865385;28;20041;-89
2022/01/25 08:09:47;;;;;;;6.97;3.03;;;;;;;-145.06;0.00;60892.56;4875309;28;20041;-89
2022/01/25 08:12:26;;;;;;;;;;;;;;;-145.06;0.00;60892.56;4852577;28;20041;-89
2022/01/25 08:15:07;;;;;;;4.70;2.30;;;;;;;-145.06;0.00;60892.56;4861117;28;19916;-90
2022/01/25 08:17:46;;;;;;;5.78;2.63;;;;;;;-145.06;0.00;60892.56;4850318;28;20272;-89
2022/01/25 08:20:25;;;;;;;5.38;3.00;;;;;;;-145.06;0.00;60892.56;4847363;28;20053;-89
2022/01/25 08:23:05;;;;;;;5.13;2.88;;;;;;;-145.06;0.00;60892.56;4848444;28;20038;-88
2022/01/25 08:25:44;;;;;;;5.13;2.97;;;;;;;-145.06;0.00;60892.56;4860055;28;20037;-88
2022/01/25 08:28:23;;;;;;;5.97;3.22;;;;;;;-145.06;0.00;60892.56;4842895;28;20789;-89
2022/01/25 08:31:02;;;;;;;10.03;3.40;;;;;;;-145.06;0.00;60892.56;4850380;28;20037;-89
2022/01/25 08:33:41;;;;;;;7.00;3.03;;;;;;;-145.06;0.00;60892.56;4847796;28;20037;-87
2022/01/25 08:36:21;;;;;;;7.03;3.40;;;;;;;-145.06;0.00;60892.56;4852070;28;20452;-87
2022/01/25 08:39:00;;;;;;;5.88;3.05;;;;;;;-145.06;0.00;60892.56;4847298;28;20037;-89
2022/01/25 08:41:39;;;;;;;6.88;3.28;;;;;;;-145.06;0.00;60892.56;4849037;28;20036;-88
2022/01/25 08:44:19;;;;;;;9.50;3.53;;;;;;;-145.06;0.00;60892.56;4848862;28;20037;-90
2022/01/25 08:46:58;;;;;;;7.95;3.95;;;;;;;-145.06;0.00;60892.56;4846026;28;20045;-89
2022/01/25 08:49:38;;;;;;;6.68;3.28;;;;;;;-145.06;0.00;60892.56;4847988;28;20491;-90
2022/01/25 08:52:17;;;;;;;6.25;3.67;;;;;;;-145.06;0.00;60892.56;4850143;28;20033;-89
2022/01/25 08:54:56;;;;;;;8.15;3.45;;;;;;;-145.06;0.00;60892.56;4851842;28;20491;-90
2022/01/25 08:57:35;;;;;;;6.83;3.70;;;;;;;-145.06;0.00;60892.56;4850072;28;20033;-88
2022/01/25 09:00:15;;;;;;;7.47;3.30;;;;;;;-145.06;0.00;60892.56;4848942;28;20809;-90
2022/01/25 09:02:54;;;;;;;7.75;3.78;;;;;;;-145.06;0.00;60892.56;4849125;28;20551;-89
2022/01/25 09:05:33;;;;;;;8.07;3.38;;;;;;;-145.06;0.00;60892.56;4847787;28;20041;-89
2022/01/25 09:08:18;;;;;;;11.13;4.32;;;;;;;2.68;0.00;60892.56;4848304;28;20033;-88
2022/01/25 09:11:00;;;;;;;12.07;4.03;;;;;;;-145.06;0.00;60892.56;4847505;28;20045;-89
2022/01/25 09:13:39;;;;;;;8.23;3.88;;;;;;;-145.06;0.00;60892.56;4848281;28;20380;-89
2022/01/25 09:16:18;;;;;;;;;;;;;;;21.08;0.00;60892.56;4847833;28;20554;-90
2022/01/25 09:18:57;;;;;;;7.10;3.40;;;;;;;-145.06;0.00;60892.56;4847647;28;20177;-90
2022/01/25 09:21:36;;;;;;;6.63;3.53;;;;;;;-145.06;0.00;60892.56;4846825;28;21585;-89
2022/01/25 09:24:15;;;;;;;7.05;3.83;;;;;;;-145.06;0.00;60892.56;4860200;28;20068;-90
2022/01/25 09:26:54;;;;;;;8.17;3.80;;;;;;;-145.06;0.00;60892.56;4847467;28;20061;-90
2022/01/25 09:29:33;;;;;;;7.90;4.00;;;;;;;-145.06;0.00;60892.56;4846279;28;20041;-89
2022/01/25 09:32:12;;;;;;;6.67;3.63;;;;;;;-145.06;0.00;60892.56;4855421;28;20515;-88
2022/01/25 09:34:51;;;;;;;6.40;3.60;;;;;;;-145.06;0.00;60892.56;4846846;28;20311;-89
2022/01/25 09:37:30;;;;;;;8.30;4.35;;;;;;;-145.06;0.00;60892.56;4856662;28;20025;-89
2022/01/25 09:40:11;;;;;;;8.65;4.32;;;;;;;-145.06;0.00;60892.56;4852766;28;20041;-91
2022/01/25 09:42:53;;;;;;;8.25;4.38;;;;;;;-145.06;0.00;60892.56;4865102;28;20024;-90
2022/01/25 09:45:33;;;;;;;9.10;4.25;;;;;;;-145.06;0.00;60892.56;4869895;28;20041;-88
2022/01/25 09:48:15;;;;;;;8.45;4.45;;;;;;;-145.06;0.00;60892.56;4865831;28;20364;-89
2022/01/25 09:50:56;;;;;;;9.10;4.57;;;;;;;-145.06;0.00;60892.56;4869391;28;20044;-89
2022/01/25 09:53:35;;;;;;;9.07;4.65;;;;;;;-145.06;0.00;60892.56;4851366;28;20488;-90
2022/01/25 09:56:14;;;;;;;10.00;4.97;;;;;;;-145.06;0.00;60892.56;4851692;28;20033;-90
2022/01/25 09:58:53;;;;;;;9.63;4.63;;;;;;;-145.06;0.00;60892.56;4863119;28;20490;-89
2022/01/25 10:01:32;;;;;;;12.03;5.00;;;;;;;-145.06;0.00;60892.56;4855827;28;20746;-90
2022/01/25 10:04:49;;;;;;;10.57;4.97;;;;;;;-145.06;0.00;60892.56;4862186;28;20021;-89
2022/01/25 10:07:29;;;;;;;9.88;4.65;;;;;;;-145.06;0.00;60892.56;4858801;28;20022;-89
2022/01/25 10:10:08;;;;;;;;;;;;;;;-145.06;0.00;60892.56;4849676;28;20033;-90
2022/01/25 10:12:47;;;;;;;7.65;4.22;;;;;;;-145.06;0.00;60892.56;4854785;28;19917;-90
2022/01/25 10:15:27;;;;;;;7.18;4.20;;;;;;;-145.06;0.00;60892.56;4856873;28;20080;-89
2022/01/25 10:18:06;;;;;;;11.25;5.15;;;;;;;187.52;0.00;60892.56;4855818;28;20061;-90
2022/01/25 10:20:50;;;;;;;10.20;5.07;;;;;;;-145.06;0.00;60892.56;4853645;28;20042;-91
2022/01/25 10:23:31;;;;;;;8.63;4.82;;;;;;;-145.06;0.00;60892.56;4855096;28;20037;-89
2022/01/25 10:26:10;;;;;;;11.10;5.50;;;;;;;-145.06;0.00;60892.56;4856456;28;20124;-90
2022/01/25 10:28:51;;;;;;;11.70;5.95;;;;;;;-145.06;0.00;60892.56;4856436;28;20104;-91
2022/01/25 10:31:36;;;;;;;10.05;4.75;;;;;;;-145.06;0.00;60892.56;4862944;28;20132;-89
2022/01/25 10:34:20;;;;;;;7.93;4.45;;;;;;;-145.06;0.00;60892.56;4848555;28;20038;-90
2022/01/25 10:37:19;;;;;;;8.73;4.68;;;;;;;-145.06;0.00;60892.56;4863393;28;20029;-91
2022/01/25 10:39:58;;;;;;;10.27;4.90;;;;;;;-145.06;0.00;60892.56;4867946;28;20065;-90
2022/01/25 10:42:37;;;;;;;9.50;4.85;;;;;;;-145.06;0.00;60892.56;4855419;28;20021;-91
2022/01/25 10:45:17;;;;;;;8.57;4.57;;;;;;;4.19;0.00;60892.56;4856981;28;20037;-90
2022/01/25 10:47:57;;;;;;;11.30;5.10;;;;;;;-145.06;0.00;60892.56;4841267;28;20773;-90
2022/01/25 10:50:36;;;;;;;10.30;4.90;;;;;;;-145.06;0.00;60892.56;4856258;28;20060;-90
2022/01/25 10:53:16;;;;;;;11.47;5.50;;;;;;;-145.06;0.00;60892.56;4854461;28;20033;-91
2022/01/25 10:55:59;;;;;;;10.55;5.30;;;;;;;-145.06;0.00;60892.56;4870287;28;20033;-90
2022/01/25 10:58:42;;;;;;;11.23;4.57;;;;;;;-145.06;0.00;60892.56;4863691;28;20033;-90
2022/01/25 11:01:33;;;;;;;9.48;4.82;;;;;;;4.03;0.00;60892.56;4859039;28;20073;-90
2022/01/25 11:04:14;;;;;;;10.50;4.72;;;;;;;-145.06;0.00;60892.56;4858127;28;20120;-90
2022/01/25 11:07:01;;;;;;;12.02;4.63;;;;;;;-145.06;0.00;60892.56;4872431;28;20029;-90
2022/01/25 11:09:46;;;;;;;8.15;4.85;;;;;;;-145.06;0.00;60892.56;4868813;28;20104;-90
2022/01/25 11:12:27;;;;;;;9.05;4.95;;;;;;;-145.06;0.00;60892.56;4885364;28;20116;-91
2022/01/25 11:15:07;;;;;;;8.70;4.53;;;;;;;4.16;0.00;60892.56;4854881;28;20100;-89
2022/01/25 11:17:46;;;;;;;13.43;5.50;;;;;;;21.08;0.00;60892.56;4863132;28;20037;-90
2022/01/25 11:20:25;;;;;;;9.13;4.50;;;;;;;-145.06;0.00;60892.56;4859553;28;20029;-89
2022/01/25 11:23:05;;;;;;;9.07;4.70;;;;;;;-145.06;0.00;60892.56;4859740;28;20025;-91
2022/01/25 11:25:46;;;;;;;9.20;5.10;;;;;;;-145.06;0.00;60892.56;4857812;28;20537;-90
2022/01/25 11:28:26;;;;;;;10.98;5.57;;;;;;;10.68;0.00;60892.56;4858675;28;20420;-91
2022/01/25 11:31:12;;;;;;;9.80;5.38;;;;;;;-145.06;0.00;60892.56;4858763;28;20025;-90
2022/01/25 11:33:53;;;;;;;10.18;4.88;;;;;;;-145.06;0.00;60892.56;4862431;28;20029;-90
2022/01/25 11:36:40;;;;;;;9.80;5.13;;;;;;;-145.06;0.00;60892.56;4858615;28;20033;-91
2022/01/25 11:39:22;;;;;;;16.20;5.32;;;;;;;-145.06;0.00;60892.56;4858196;28;20026;-91
2022/01/25 11:42:07;;;;;;;12.95;6.45;;;;;;;-145.06;0.00;60892.56;4872023;28;20030;-90
2022/01/25 11:44:47;;;;;;;11.35;5.85;;;;;;;-145.06;0.00;60892.56;4858559;28;20025;-90
2022/01/25 11:47:32;;;;;;;11.60;5.53;;;;;;;-145.06;0.00;60892.56;4859453;28;20072;-90
2022/01/25 11:50:11;;;;;;;11.15;5.65;;;;;;;-145.06;0.00;60892.56;4867004;28;20032;-90
2022/01/25 11:52:53;;;;;;;8.98;5.25;;;;;;;-145.06;0.00;60892.56;4856337;28;20064;-91
2022/01/25 11:55:35;;;;;;;10.38;5.47;;;;;;;-145.06;0.00;60892.56;4857873;28;20432;-90
2022/01/25 11:58:26;;;;;;;8.60;4.88;;;;;;;4.43;0.00;60892.56;4858376;28;20045;-91
2022/01/25 12:01:17;;;;;;;10.88;4.95;;;;;;;-145.06;0.00;60892.56;4857668;28;20033;-90
2022/01/25 12:03:59;;;;;;;9.45;5.03;;;;;;;-145.06;0.00;60892.56;4871776;28;20030;-89
2022/01/25 12:06:49;;;;;;;11.32;5.25;;;;;;;-145.06;0.00;60892.56;4852948;28;20049;-90
2022/01/25 12:09:48;;;;;;;9.10;5.05;;;;;;;-145.06;0.00;60892.56;4857738;28;20033;-91
2022/01/25 12:12:27;;;;;;;11.00;5.70;;;;;;;-145.06;0.00;60892.56;4852542;28;20025;-91
2022/01/25 12:15:13;;;;;;;9.40;5.23;;;;;;;-145.06;0.00;60892.56;4858141;28;20034;-90
2022/01/25 12:17:52;;;;;;;11.25;5.30;;;;;;;-145.06;0.00;60892.56;4846389;28;20041;-91
2022/01/25 12:20:46;;;;;;;8.50;5.00;;;;;;;-145.06;0.00;60892.56;4857643;28;20065;-90
2022/01/25 12:23:43;;;;;;;11.23;5.60;;;;;;;-145.06;0.00;60892.56;4858315;28;20053;-90
2022/01/25 12:29:57;;;;;;;10.05;5.20;;;;;;;-145.06;0.00;60892.56;4857600;28;20018;-90
2022/01/25 12:32:48;;;;;;;8.90;4.88;;;;;;;-145.06;0.00;60892.56;4857870;28;20030;-91
2022/01/25 12:35:36;;;;;;;8.90;4.65;;;;;;;-145.06;0.00;60892.56;4875962;28;20484;-90
2022/01/25 12:38:19;;;;;;;9.15;5.05;;;;;;;-145.06;0.00;60892.56;4876663;28;20482;-90
2022/01/25 12:41:01;;;;;;;7.55;4.40;;;;;;;-145.06;0.00;60892.56;4876495;28;20597;-90
2022/01/25 12:43:44;;;;;;;9.32;5.18;;;;;;;-145.06;0.00;60892.56;4864930;28;20037;-91
2022/01/25 12:46:28;;;;;;;8.35;4.68;;;;;;;-145.06;0.00;60892.56;4856903;28;20053;-91
2022/01/25 12:49:11;;;;;;;8.20;4.45;;;;;;;-145.06;0.00;60892.56;4857235;28;20392;-91
2022/01/25 12:51:52;;;;;;;8.95;4.97;;;;;;;-145.06;0.00;60892.56;4855718;28;20052;-91
2022/01/25 12:54:36;;;;;;;9.20;4.90;;;;;;;-145.06;0.00;60892.56;4856273;28;20033;-91
2022/01/25 12:57:15;;;;;;;10.35;5.53;;;;;;;-145.06;0.00;60892.56;4857643;28;20491;-91
2022/01/25 12:59:55;;;;;;;9.60;4.93;;;;;;;-145.06;0.00;60892.56;4856881;28;20400;-90
2022/01/25 13:02:34;;;;;;;9.00;5.25;;;;;;;-145.06;0.00;60892.56;4850275;28;20380;-91
2022/01/25 13:05:19;;;;;;;9.65;5.50;;;;;;;-145.06;0.00;60892.56;4864671;28;20064;-90
2022/01/25 13:08:50;;;;;;;8.02;4.82;;;;;;;-145.06;0.00;60892.56;4872517;28;20057;-91
2022/01/25 13:11:46;;;;;;;8.95;4.93;;;;;;;-145.06;0.00;60892.56;4834561;28;20042;-90
2022/01/25 13:17:22;;;;;;;9.15;4.78;;;;;;;-145.06;0.00;60892.56;4860791;28;20033;-90
2022/01/25 13:20:04;;;;;;;10.30;5.63;;;;;;;21.08;0.00;60892.56;4856487;28;20033;-91
2022/01/25 13:22:45;;;;;;;9.90;5.22;;;;;;;-145.06;0.00;60892.56;4851055;28;20033;-91
2022/01/25 13:28:14;;;;;;;9.48;5.28;;;;;;;21.08;0.00;60892.56;4865406;28;20025;-89
2022/01/25 13:30:53;;;;;;;11.27;5.25;;;;;;;-145.06;0.00;60892.56;4857202;28;20041;-90
2022/01/25 13:33:32;;;;;;;10.00;5.20;;;;;;;-145.06;0.00;60892.56;4855530;28;20025;-91
2022/01/25 13:36:19;;;;;;;8.80;4.82;;;;;;;-145.06;0.00;60892.56;4864668;28;20041;-90
2022/01/25 13:38:59;;;;;;;9.32;4.88;;;;;;;-145.06;0.00;60892.56;4862461;28;20507;-90
2022/01/25 13:41:42;;;;;;;;;;;;;;;-145.06;0.00;60892.56;4855978;28;20037;-90
2022/01/25 13:47:19;;;;;;;6.93;4.25;;;;;;;-145.06;0.00;60892.56;4858173;28;20029;-91
2022/01/25 13:50:00;;;;;;;8.38;4.82;;;;;;;5.10;0.00;60892.56;4855824;28;20109;-92
2022/01/25 13:52:39;;;;;;;9.55;5.13;;;;;;;187.52;0.00;60892.56;4852738;28;20116;-91
2022/01/25 13:55:18;;;;;;;10.68;5.78;;;;;;;-145.06;0.00;60892.56;4855211;28;20116;-91
2022/01/25 13:57:57;;;;;;;9.43;5.20;;;;;;;-145.06;0.00;60892.56;4858523;28;20037;-90
2022/01/25 14:00:36;;;;;;;10.57;5.37;;;;;;;-145.06;0.00;60892.56;4856714;28;20065;-91
2022/01/25 14:03:16;;;;;;;8.68;4.65;;;;;;;-145.06;0.00;60892.56;4855517;28;20280;-91
2022/01/25 14:05:56;;;;;;;8.55;5.22;;;;;;;-145.06;0.00;60892.56;4855035;28;20045;-91
2022/01/25 14:08:40;;;;;;;10.23;5.38;;;;;;;5.49;0.00;60892.56;4855411;28;20535;-91
2022/01/25 14:11:50;;;;;;;9.68;5.53;;;;;;;187.52;0.00;60892.56;4855604;28;20033;-91
2022/01/25 14:23:26;;;;;;;8.35;5.10;;;;;;;-145.06;0.00;60892.56;4856432;28;20029;-90
2022/01/25 14:26:09;;;;;;;9.70;5.40;;;;;;;10.68;0.00;60892.56;4859956;28;20033;-91
2022/01/25 14:29:05;;;;;;;10.38;5.30;;;;;;;10.68;0.00;60892.56;4864168;28;20056;-91
2022/01/25 14:31:46;;;;;;;9.68;5.57;;;;;;;5.23;0.00;60892.56;4855523;28;20033;-90
2022/01/25 14:34:27;;;;;;;9.52;5.22;;;;;;;-145.06;0.00;60892.56;4859421;28;20033;-91
2022/01/25 14:37:13;;;;;;;9.57;5.63;;;;;;;5.49;0.00;60892.56;4864272;28;20029;-91